sensor_id;sensor_type;location;lat;lon;timestamp;pressure;altitude;pressure_sealevel;temperature;humidity
73085;BME280;62974;49.460;10.892;2023-04-30T00:01:40;98131.28;;;10.09;92.53
73085;BME280;62974;49.460;10.892;2023-04-30T00:04:07;98133.50;;;10.06;92.19
73085;BME280;62974;49.460;10.892;2023-04-30T00:06:35;98128.28;;;9.68;94.72
73085;BME280;62974;49.460;10.892;2023-04-30T00:09:03;98129.66;;;9.94;93.15
73085;BME280;62974;49.460;10.892;2023-04-30T00:11:30;98129.13;;;9.69;94.85
73085;BME280;62974;49.460;10.892;2023-04-30T00:13:59;98133.69;;;10.04;93.36
73085;BME280;62974;49.460;10.892;2023-04-30T00:16:27;98135.41;;;9.90;92.93
73085;BME280;62974;49.460;10.892;2023-04-30T00:18:54;98136.97;;;9.85;93.12
73085;BME280;62974;49.460;10.892;2023-04-30T00:21:22;98133.66;;;9.68;94.34
73085;BME280;62974;49.460;10.892;2023-04-30T00:23:49;98140.50;;;9.56;95.68
73085;BME280;62974;49.460;10.892;2023-04-30T00:26:17;98147.81;;;9.77;94.68
73085;BME280;62974;49.460;10.892;2023-04-30T00:28:44;98145.16;;;9.62;94.91
73085;BME280;62974;49.460;10.892;2023-04-30T00:31:13;98135.66;;;9.96;93.78
73085;BME280;62974;49.460;10.892;2023-04-30T00:33:41;98143.75;;;9.66;94.47
73085;BME280;62974;49.460;10.892;2023-04-30T00:36:08;98151.34;;;9.63;95.74
73085;BME280;62974;49.460;10.892;2023-04-30T00:38:36;98139.97;;;10.11;92.70
73085;BME280;62974;49.460;10.892;2023-04-30T00:41:03;98149.53;;;9.99;91.18
73085;BME280;62974;49.460;10.892;2023-04-30T00:43:31;98158.00;;;9.67;94.55
73085;BME280;62974;49.460;10.892;2023-04-30T00:45:59;98152.00;;;9.50;96.05
73085;BME280;62974;49.460;10.892;2023-04-30T00:48:30;98157.16;;;9.52;95.20
73085;BME280;62974;49.460;10.892;2023-04-30T00:50:58;98161.22;;;9.48;96.00
73085;BME280;62974;49.460;10.892;2023-04-30T00:53:26;98156.97;;;9.53;95.64
73085;BME280;62974;49.460;10.892;2023-04-30T00:55:54;98150.22;;;9.72;94.52
73085;BME280;62974;49.460;10.892;2023-04-30T00:58:22;98159.38;;;9.63;94.70
73085;BME280;62974;49.460;10.892;2023-04-30T01:00:50;98160.41;;;9.47;96.20
73085;BME280;62974;49.460;10.892;2023-04-30T01:03:18;98163.25;;;9.60;95.60
73085;BME280;62974;49.460;10.892;2023-04-30T01:05:49;98156.81;;;10.20;90.75
73085;BME280;62974;49.460;10.892;2023-04-30T01:08:19;98158.84;;;9.67;93.83
73085;BME280;62974;49.460;10.892;2023-04-30T01:10:52;98165.81;;;9.98;92.33
73085;BME280;62974;49.460;10.892;2023-04-30T01:13:27;98161.69;;;9.66;93.63
73085;BME280;62974;49.460;10.892;2023-04-30T01:15:58;98164.72;;;9.77;93.77
73085;BME280;62974;49.460;10.892;2023-04-30T01:18:30;98161.94;;;10.15;90.64
73085;BME280;62974;49.460;10.892;2023-04-30T01:21:04;98160.25;;;10.14;89.53
73085;BME280;62974;49.460;10.892;2023-04-30T01:23:41;98157.66;;;10.20;88.74
73085;BME280;62974;49.460;10.892;2023-04-30T01:26:18;98152.91;;;9.86;91.50
73085;BME280;62974;49.460;10.892;2023-04-30T01:28:49;98159.41;;;10.13;90.35
73085;BME280;62974;49.460;10.892;2023-04-30T01:31:19;98147.28;;;10.53;86.88
73085;BME280;62974;49.460;10.892;2023-04-30T01:33:47;98149.25;;;10.45;86.69
73085;BME280;62974;49.460;10.892;2023-04-30T01:36:28;98160.94;;;10.37;86.98
73085;BME280;62974;49.460;10.892;2023-04-30T01:39:17;98164.84;;;10.34;88.19
73085;BME280;62974;49.460;10.892;2023-04-30T01:41:54;98168.56;;;10.04;89.70
73085;BME280;62974;49.460;10.892;2023-04-30T01:44:40;98168.47;;;10.27;89.03
73085;BME280;62974;49.460;10.892;2023-04-30T01:47:25;98168.13;;;10.15;88.56
73085;BME280;62974;49.460;10.892;2023-04-30T01:50:04;98170.34;;;10.48;87.20
73085;BME280;62974;49.460;10.892;2023-04-30T01:52:39;98176.16;;;10.01;90.26
73085;BME280;62974;49.460;10.892;2023-04-30T01:55:10;98174.25;;;9.80;90.74
73085;BME280;62974;49.460;10.892;2023-04-30T01:57:43;98178.50;;;9.60;93.43
73085;BME280;62974;49.460;10.892;2023-04-30T02:00:17;98175.50;;;10.28;88.77
73085;BME280;62974;49.460;10.892;2023-04-30T02:02:45;98181.53;;;10.01;90.48
73085;BME280;62974;49.460;10.892;2023-04-30T02:05:13;98182.03;;;9.60;91.31
73085;BME280;62974;49.460;10.892;2023-04-30T02:07:42;98181.75;;;9.99;91.73
73085;BME280;62974;49.460;10.892;2023-04-30T02:10:10;98183.19;;;10.16;89.88
73085;BME280;62974;49.460;10.892;2023-04-30T02:12:38;98181.25;;;10.10;89.53
73085;BME280;62974;49.460;10.892;2023-04-30T02:15:07;98186.09;;;10.15;88.84
73085;BME280;62974;49.460;10.892;2023-04-30T02:17:36;98190.25;;;9.88;89.42
73085;BME280;62974;49.460;10.892;2023-04-30T02:20:05;98186.59;;;10.25;88.41
73085;BME280;62974;49.460;10.892;2023-04-30T02:22:34;98187.81;;;10.08;89.41
73085;BME280;62974;49.460;10.892;2023-04-30T02:25:02;98196.53;;;9.80;91.33
73085;BME280;62974;49.460;10.892;2023-04-30T02:27:31;98202.25;;;9.48;92.23
73085;BME280;62974;49.460;10.892;2023-04-30T02:29:58;98202.34;;;9.84;91.47
73085;BME280;62974;49.460;10.892;2023-04-30T02:32:26;98200.06;;;9.66;92.01
73085;BME280;62974;49.460;10.892;2023-04-30T02:34:55;98203.72;;;9.36;93.53
73085;BME280;62974;49.460;10.892;2023-04-30T02:37:23;98198.31;;;9.59;92.45
73085;BME280;62974;49.460;10.892;2023-04-30T02:39:50;98195.50;;;9.52;91.93
73085;BME280;62974;49.460;10.892;2023-04-30T02:42:18;98201.25;;;9.49;93.47
73085;BME280;62974;49.460;10.892;2023-04-30T02:44:46;98196.88;;;9.33;93.51
73085;BME280;62974;49.460;10.892;2023-04-30T02:47:13;98206.56;;;9.20;94.57
73085;BME280;62974;49.460;10.892;2023-04-30T02:49:41;98205.16;;;9.09;95.70
73085;BME280;62974;49.460;10.892;2023-04-30T02:52:09;98194.59;;;9.60;93.55
73085;BME280;62974;49.460;10.892;2023-04-30T02:54:37;98195.75;;;9.28;95.20
73085;BME280;62974;49.460;10.892;2023-04-30T02:57:04;98192.75;;;9.31;94.10
73085;BME280;62974;49.460;10.892;2023-04-30T02:59:32;98199.25;;;8.99;96.66
73085;BME280;62974;49.460;10.892;2023-04-30T03:02:00;98194.47;;;9.24;95.28
73085;BME280;62974;49.460;10.892;2023-04-30T03:04:27;98195.06;;;9.49;94.08
73085;BME280;62974;49.460;10.892;2023-04-30T03:06:55;98201.47;;;9.10;95.51
73085;BME280;62974;49.460;10.892;2023-04-30T03:09:23;98200.16;;;9.06;95.21
73085;BME280;62974;49.460;10.892;2023-04-30T03:11:51;98203.03;;;9.05;96.30
73085;BME280;62974;49.460;10.892;2023-04-30T03:14:18;98201.47;;;9.10;96.14
73085;BME280;62974;49.460;10.892;2023-04-30T03:16:46;98203.78;;;9.13;95.47
73085;BME280;62974;49.460;10.892;2023-04-30T03:19:14;98200.94;;;8.92;95.55
73085;BME280;62974;49.460;10.892;2023-04-30T03:21:42;98197.53;;;8.83;96.83
73085;BME280;62974;49.460;10.892;2023-04-30T03:24:10;98190.59;;;9.26;94.68
73085;BME280;62974;49.460;10.892;2023-04-30T03:26:39;98186.44;;;9.24;94.51
73085;BME280;62974;49.460;10.892;2023-04-30T03:29:07;98187.06;;;9.11;94.18
73085;BME280;62974;49.460;10.892;2023-04-30T03:31:34;98187.16;;;9.03;95.28
73085;BME280;62974;49.460;10.892;2023-04-30T03:34:02;98192.28;;;8.90;96.17
73085;BME280;62974;49.460;10.892;2023-04-30T03:36:29;98183.47;;;9.19;95.15
73085;BME280;62974;49.460;10.892;2023-04-30T03:38:57;98189.47;;;9.21;92.93
73085;BME280;62974;49.460;10.892;2023-04-30T03:41:24;98185.94;;;9.06;94.07
73085;BME280;62974;49.460;10.892;2023-04-30T03:43:53;98182.44;;;9.05;94.66
73085;BME280;62974;49.460;10.892;2023-04-30T03:46:21;98199.13;;;8.70;96.03
73085;BME280;62974;49.460;10.892;2023-04-30T03:48:48;98194.03;;;8.98;95.42
73085;BME280;62974;49.460;10.892;2023-04-30T03:51:20;98196.34;;;9.01;94.18
73085;BME280;62974;49.460;10.892;2023-04-30T03:53:48;98189.94;;;9.24;94.52
73085;BME280;62974;49.460;10.892;2023-04-30T03:56:15;98193.72;;;9.15;94.14
73085;BME280;62974;49.460;10.892;2023-04-30T03:58:43;98197.03;;;9.17;94.12
73085;BME280;62974;49.460;10.892;2023-04-30T04:01:11;98198.97;;;9.09;95.27
73085;BME280;62974;49.460;10.892;2023-04-30T04:03:39;98188.22;;;9.31;92.70
73085;BME280;62974;49.460;10.892;2023-04-30T04:06:06;98195.97;;;8.66;96.59
73085;BME280;62974;49.460;10.892;2023-04-30T04:08:34;98195.41;;;8.93;94.98
73085;BME280;62974;49.460;10.892;2023-04-30T04:11:02;98201.03;;;9.21;94.87
73085;BME280;62974;49.460;10.892;2023-04-30T04:13:30;98191.97;;;9.22;93.05
73085;BME280;62974;49.460;10.892;2023-04-30T04:15:57;98199.31;;;8.91;94.69
73085;BME280;62974;49.460;10.892;2023-04-30T04:18:26;98203.81;;;8.90;95.59
73085;BME280;62974;49.460;10.892;2023-04-30T04:20:54;98189.72;;;9.63;91.71
73085;BME280;62974;49.460;10.892;2023-04-30T04:23:22;98198.78;;;9.62;90.38
73085;BME280;62974;49.460;10.892;2023-04-30T04:25:50;98198.44;;;9.28;92.87
73085;BME280;62974;49.460;10.892;2023-04-30T04:28:17;98200.50;;;9.26;92.75
73085;BME280;62974;49.460;10.892;2023-04-30T04:30:45;98212.09;;;8.81;94.81
73085;BME280;62974;49.460;10.892;2023-04-30T04:33:12;98207.13;;;9.15;95.41
73085;BME280;62974;49.460;10.892;2023-04-30T04:35:41;98203.19;;;9.40;93.65
73085;BME280;62974;49.460;10.892;2023-04-30T04:38:08;98204.94;;;9.48;91.93
73085;BME280;62974;49.460;10.892;2023-04-30T04:40:36;98212.75;;;9.20;94.47
73085;BME280;62974;49.460;10.892;2023-04-30T04:43:04;98204.63;;;9.14;94.39
73085;BME280;62974;49.460;10.892;2023-04-30T04:45:31;98206.41;;;9.36;92.61
73085;BME280;62974;49.460;10.892;2023-04-30T04:47:59;98214.06;;;9.24;93.82
73085;BME280;62974;49.460;10.892;2023-04-30T04:50:27;98216.50;;;9.49;92.72
73085;BME280;62974;49.460;10.892;2023-04-30T04:52:55;98218.50;;;9.32;92.85
73085;BME280;62974;49.460;10.892;2023-04-30T04:55:23;98217.56;;;9.25;93.17
73085;BME280;62974;49.460;10.892;2023-04-30T04:57:50;98221.84;;;9.19;94.71
73085;BME280;62974;49.460;10.892;2023-04-30T05:00:18;98223.31;;;9.36;93.94
73085;BME280;62974;49.460;10.892;2023-04-30T05:02:47;98220.75;;;9.43;93.21
73085;BME280;62974;49.460;10.892;2023-04-30T05:05:15;98213.97;;;9.32;92.21
73085;BME280;62974;49.460;10.892;2023-04-30T05:07:42;98221.84;;;8.96;94.80
73085;BME280;62974;49.460;10.892;2023-04-30T05:10:11;98220.03;;;9.12;96.04
73085;BME280;62974;49.460;10.892;2023-04-30T05:12:38;98216.78;;;9.02;96.23
73085;BME280;62974;49.460;10.892;2023-04-30T05:15:07;98224.44;;;9.05;95.07
73085;BME280;62974;49.460;10.892;2023-04-30T05:17:34;98228.34;;;9.02;94.78
73085;BME280;62974;49.460;10.892;2023-04-30T05:20:02;98230.13;;;9.24;95.34
73085;BME280;62974;49.460;10.892;2023-04-30T05:22:32;98228.06;;;9.49;93.58
73085;BME280;62974;49.460;10.892;2023-04-30T05:24:59;98220.31;;;9.54;91.87
73085;BME280;62974;49.460;10.892;2023-04-30T05:27:28;98232.69;;;9.03;95.78
73085;BME280;62974;49.460;10.892;2023-04-30T05:29:56;98236.31;;;9.10;95.66
73085;BME280;62974;49.460;10.892;2023-04-30T05:32:25;98235.69;;;9.00;97.75
73085;BME280;62974;49.460;10.892;2023-04-30T05:34:53;98234.69;;;9.01;96.50
73085;BME280;62974;49.460;10.892;2023-04-30T05:37:20;98241.66;;;9.10;95.62
73085;BME280;62974;49.460;10.892;2023-04-30T05:39:48;98236.38;;;9.54;93.98
73085;BME280;62974;49.460;10.892;2023-04-30T05:42:15;98246.19;;;9.10;95.30
73085;BME280;62974;49.460;10.892;2023-04-30T05:44:47;98246.28;;;9.16;95.71
73085;BME280;62974;49.460;10.892;2023-04-30T05:47:14;98241.00;;;9.60;93.88
73085;BME280;62974;49.460;10.892;2023-04-30T05:49:42;98243.47;;;9.32;93.79
73085;BME280;62974;49.460;10.892;2023-04-30T05:52:09;98239.44;;;9.66;93.68
73085;BME280;62974;49.460;10.892;2023-04-30T05:54:37;98241.31;;;9.95;91.60
73085;BME280;62974;49.460;10.892;2023-04-30T05:57:04;98240.66;;;9.93;91.56
73085;BME280;62974;49.460;10.892;2023-04-30T05:59:32;98237.31;;;10.05;91.05
73085;BME280;62974;49.460;10.892;2023-04-30T06:02:01;98236.78;;;9.95;90.24
73085;BME280;62974;49.460;10.892;2023-04-30T06:04:28;98230.94;;;9.77;91.11
73085;BME280;62974;49.460;10.892;2023-04-30T06:06:56;98241.69;;;10.06;89.77
73085;BME280;62974;49.460;10.892;2023-04-30T06:09:23;98231.69;;;10.00;89.52
73085;BME280;62974;49.460;10.892;2023-04-30T06:11:51;98241.41;;;10.30;88.49
73085;BME280;62974;49.460;10.892;2023-04-30T06:14:21;98240.75;;;10.14;88.75
73085;BME280;62974;49.460;10.892;2023-04-30T06:16:49;98231.03;;;10.13;89.34
73085;BME280;62974;49.460;10.892;2023-04-30T06:19:18;98234.63;;;9.76;89.22
73085;BME280;62974;49.460;10.892;2023-04-30T06:21:46;98242.78;;;9.82;90.08
73085;BME280;62974;49.460;10.892;2023-04-30T06:24:13;98237.78;;;10.23;89.26
73085;BME280;62974;49.460;10.892;2023-04-30T06:26:41;98238.63;;;10.09;87.47
73085;BME280;62974;49.460;10.892;2023-04-30T06:29:08;98229.72;;;10.09;88.04
73085;BME280;62974;49.460;10.892;2023-04-30T06:31:36;98230.38;;;10.11;87.89
73085;BME280;62974;49.460;10.892;2023-04-30T06:34:04;98228.06;;;10.37;86.11
73085;BME280;62974;49.460;10.892;2023-04-30T06:36:32;98233.41;;;10.37;85.74
73085;BME280;62974;49.460;10.892;2023-04-30T06:39:00;98237.16;;;10.57;85.47
73085;BME280;62974;49.460;10.892;2023-04-30T06:41:28;98232.81;;;10.56;85.49
73085;BME280;62974;49.460;10.892;2023-04-30T06:43:55;98221.84;;;10.72;85.24
73085;BME280;62974;49.460;10.892;2023-04-30T06:46:23;98229.16;;;10.64;85.16
73085;BME280;62974;49.460;10.892;2023-04-30T06:48:51;98223.06;;;10.70;84.35
73085;BME280;62974;49.460;10.892;2023-04-30T06:51:18;98218.97;;;10.74;83.72
73085;BME280;62974;49.460;10.892;2023-04-30T06:53:47;98225.06;;;10.82;82.43
73085;BME280;62974;49.460;10.892;2023-04-30T06:56:15;98227.88;;;10.60;83.40
73085;BME280;62974;49.460;10.892;2023-04-30T06:58:42;98236.53;;;10.76;82.72
73085;BME280;62974;49.460;10.892;2023-04-30T07:01:10;98230.44;;;10.82;83.19
73085;BME280;62974;49.460;10.892;2023-04-30T07:03:38;98223.75;;;11.21;81.43
73085;BME280;62974;49.460;10.892;2023-04-30T07:06:05;98217.78;;;11.53;80.27
73085;BME280;62974;49.460;10.892;2023-04-30T07:08:33;98225.19;;;11.23;81.46
73085;BME280;62974;49.460;10.892;2023-04-30T07:11:02;98221.94;;;11.28;80.82
73085;BME280;62974;49.460;10.892;2023-04-30T07:13:29;98233.13;;;11.31;79.97
73085;BME280;62974;49.460;10.892;2023-04-30T07:15:57;98224.53;;;11.43;79.91
73085;BME280;62974;49.460;10.892;2023-04-30T07:18:24;98226.63;;;11.19;77.89
73085;BME280;62974;49.460;10.892;2023-04-30T07:20:52;98227.00;;;11.38;77.71
73085;BME280;62974;49.460;10.892;2023-04-30T07:23:19;98227.56;;;11.33;78.10
73085;BME280;62974;49.460;10.892;2023-04-30T07:25:47;98217.97;;;11.73;77.86
73085;BME280;62974;49.460;10.892;2023-04-30T07:28:16;98224.34;;;11.72;76.69
73085;BME280;62974;49.460;10.892;2023-04-30T07:30:43;98225.03;;;11.81;75.77
73085;BME280;62974;49.460;10.892;2023-04-30T07:33:11;98225.72;;;11.89;76.40
73085;BME280;62974;49.460;10.892;2023-04-30T07:35:38;98207.38;;;12.06;76.04
73085;BME280;62974;49.460;10.892;2023-04-30T07:38:06;98215.94;;;12.22;75.54
73085;BME280;62974;49.460;10.892;2023-04-30T07:40:34;98217.25;;;12.40;74.83
73085;BME280;62974;49.460;10.892;2023-04-30T07:43:02;98214.13;;;12.30;73.60
73085;BME280;62974;49.460;10.892;2023-04-30T07:45:32;98213.19;;;12.09;74.12
73085;BME280;62974;49.460;10.892;2023-04-30T07:48:00;98206.63;;;11.84;70.63
73085;BME280;62974;49.460;10.892;2023-04-30T07:50:28;98218.44;;;12.24;71.49
73085;BME280;62974;49.460;10.892;2023-04-30T07:53:00;98216.69;;;12.57;71.76
73085;BME280;62974;49.460;10.892;2023-04-30T07:55:27;98211.31;;;12.57;71.21
73085;BME280;62974;49.460;10.892;2023-04-30T07:57:55;98205.75;;;12.72;71.17
73085;BME280;62974;49.460;10.892;2023-04-30T08:00:22;98209.56;;;12.37;70.97
73085;BME280;62974;49.460;10.892;2023-04-30T08:02:52;98209.34;;;12.38;71.28
73085;BME280;62974;49.460;10.892;2023-04-30T08:05:20;98216.78;;;13.03;71.97
73085;BME280;62974;49.460;10.892;2023-04-30T08:07:47;98203.72;;;13.00;68.67
73085;BME280;62974;49.460;10.892;2023-04-30T08:10:15;98216.34;;;12.87;70.31
73085;BME280;62974;49.460;10.892;2023-04-30T08:12:43;98209.69;;;12.83;70.02
73085;BME280;62974;49.460;10.892;2023-04-30T08:15:12;98205.50;;;12.60;69.56
73085;BME280;62974;49.460;10.892;2023-04-30T08:17:39;98208.63;;;12.70;70.01
73085;BME280;62974;49.460;10.892;2023-04-30T08:20:09;98212.75;;;12.53;70.60
73085;BME280;62974;49.460;10.892;2023-04-30T08:22:37;98197.06;;;12.90;66.92
73085;BME280;62974;49.460;10.892;2023-04-30T08:25:05;98202.66;;;12.82;67.64
73085;BME280;62974;49.460;10.892;2023-04-30T08:27:33;98204.50;;;12.75;67.89
73085;BME280;62974;49.460;10.892;2023-04-30T08:30:01;98191.25;;;12.99;67.24
73085;BME280;62974;49.460;10.892;2023-04-30T08:32:28;98175.31;;;13.11;63.77
73085;BME280;62974;49.460;10.892;2023-04-30T08:34:56;98190.78;;;12.63;67.52
73085;BME280;62974;49.460;10.892;2023-04-30T08:37:25;98186.16;;;12.37;65.39
73085;BME280;62974;49.460;10.892;2023-04-30T08:39:52;98191.56;;;12.44;65.29
73085;BME280;62974;49.460;10.892;2023-04-30T08:42:24;98193.66;;;12.42;65.77
73085;BME280;62974;49.460;10.892;2023-04-30T08:44:52;98194.06;;;12.45;66.17
73085;BME280;62974;49.460;10.892;2023-04-30T08:47:20;98177.03;;;12.38;63.64
73085;BME280;62974;49.460;10.892;2023-04-30T08:49:48;98190.53;;;12.45;65.15
73085;BME280;62974;49.460;10.892;2023-04-30T08:52:18;98186.38;;;12.42;65.94
73085;BME280;62974;49.460;10.892;2023-04-30T08:54:47;98183.50;;;12.50;63.45
73085;BME280;62974;49.460;10.892;2023-04-30T08:57:14;98175.06;;;13.06;64.76
73085;BME280;62974;49.460;10.892;2023-04-30T08:59:44;98163.34;;;14.04;57.92
73085;BME280;62974;49.460;10.892;2023-04-30T09:02:11;98171.72;;;13.83;58.03
73085;BME280;62974;49.460;10.892;2023-04-30T09:04:39;98188.34;;;13.80;52.68
73085;BME280;62974;49.460;10.892;2023-04-30T09:07:08;98207.06;;;13.55;56.55
73085;BME280;62974;49.460;10.892;2023-04-30T09:09:37;98204.78;;;13.58;53.45
73085;BME280;62974;49.460;10.892;2023-04-30T09:12:14;98220.78;;;13.53;55.26
73085;BME280;62974;49.460;10.892;2023-04-30T09:14:57;98202.81;;;13.98;52.91
73085;BME280;62974;49.460;10.892;2023-04-30T09:17:26;98209.38;;;14.29;54.00
73085;BME280;62974;49.460;10.892;2023-04-30T09:19:53;98215.25;;;14.06;53.41
73085;BME280;62974;49.460;10.892;2023-04-30T09:22:23;98208.97;;;14.19;51.74
73085;BME280;62974;49.460;10.892;2023-04-30T09:24:50;98214.78;;;14.22;50.91
73085;BME280;62974;49.460;10.892;2023-04-30T09:27:21;98210.13;;;14.55;53.24
73085;BME280;62974;49.460;10.892;2023-04-30T09:29:49;98206.44;;;14.30;50.07
73085;BME280;62974;49.460;10.892;2023-04-30T09:32:16;98210.38;;;14.47;51.43
73085;BME280;62974;49.460;10.892;2023-04-30T09:34:44;98211.41;;;14.84;54.01
73085;BME280;62974;49.460;10.892;2023-04-30T09:37:12;98204.69;;;14.04;53.89
73085;BME280;62974;49.460;10.892;2023-04-30T09:39:47;98214.63;;;14.17;55.55
73085;BME280;62974;49.460;10.892;2023-04-30T09:42:15;98208.72;;;14.40;52.92
73085;BME280;62974;49.460;10.892;2023-04-30T09:44:45;98205.28;;;15.27;50.88
73085;BME280;62974;49.460;10.892;2023-04-30T09:47:14;98214.25;;;14.96;51.77
73085;BME280;62974;49.460;10.892;2023-04-30T09:49:42;98216.16;;;14.51;52.81
73085;BME280;62974;49.460;10.892;2023-04-30T09:52:10;98214.25;;;13.94;53.53
73085;BME280;62974;49.460;10.892;2023-04-30T09:54:39;98207.03;;;14.45;51.25
73085;BME280;62974;49.460;10.892;2023-04-30T09:57:08;98208.13;;;14.76;51.43
73085;BME280;62974;49.460;10.892;2023-04-30T09:59:36;98206.13;;;14.65;51.81
73085;BME280;62974;49.460;10.892;2023-04-30T10:02:07;98190.75;;;15.21;48.98
73085;BME280;62974;49.460;10.892;2023-04-30T10:04:36;98195.16;;;14.53;47.93
73085;BME280;62974;49.460;10.892;2023-04-30T10:07:05;98191.41;;;14.92;51.61
73085;BME280;62974;49.460;10.892;2023-04-30T10:09:38;98186.81;;;14.92;48.00
73085;BME280;62974;49.460;10.892;2023-04-30T10:12:12;98189.16;;;14.82;48.58
73085;BME280;62974;49.460;10.892;2023-04-30T10:14:45;98183.88;;;14.94;49.08
73085;BME280;62974;49.460;10.892;2023-04-30T10:17:16;98188.81;;;14.72;51.54
73085;BME280;62974;49.460;10.892;2023-04-30T10:19:45;98185.91;;;14.23;51.45
73085;BME280;62974;49.460;10.892;2023-04-30T10:22:15;98193.13;;;14.42;53.52
73085;BME280;62974;49.460;10.892;2023-04-30T10:24:42;98184.19;;;14.79;52.67
73085;BME280;62974;49.460;10.892;2023-04-30T10:27:12;98179.13;;;14.89;50.91
73085;BME280;62974;49.460;10.892;2023-04-30T10:29:39;98179.44;;;14.75;50.50
73085;BME280;62974;49.460;10.892;2023-04-30T10:32:09;98169.75;;;14.61;49.70
73085;BME280;62974;49.460;10.892;2023-04-30T10:34:48;98173.97;;;14.50;51.93
73085;BME280;62974;49.460;10.892;2023-04-30T10:37:23;98172.41;;;14.98;50.07
73085;BME280;62974;49.460;10.892;2023-04-30T10:39:55;98177.09;;;14.85;52.54
73085;BME280;62974;49.460;10.892;2023-04-30T10:42:23;98178.28;;;14.57;52.39
73085;BME280;62974;49.460;10.892;2023-04-30T10:44:50;98162.88;;;14.96;49.84
73085;BME280;62974;49.460;10.892;2023-04-30T10:47:18;98160.31;;;14.76;49.45
73085;BME280;62974;49.460;10.892;2023-04-30T10:49:48;98156.19;;;14.67;50.15
73085;BME280;62974;49.460;10.892;2023-04-30T10:52:25;98151.44;;;14.63;47.25
73085;BME280;62974;49.460;10.892;2023-04-30T10:54:53;98158.88;;;14.36;49.13
73085;BME280;62974;49.460;10.892;2023-04-30T10:57:21;98165.22;;;14.54;48.05
73085;BME280;62974;49.460;10.892;2023-04-30T10:59:52;98153.50;;;14.67;47.47
73085;BME280;62974;49.460;10.892;2023-04-30T11:02:20;98163.28;;;14.93;50.17
73085;BME280;62974;49.460;10.892;2023-04-30T11:05:09;98170.34;;;14.63;48.23
73085;BME280;62974;49.460;10.892;2023-04-30T11:07:45;98165.84;;;14.50;50.57
73085;BME280;62974;49.460;10.892;2023-04-30T11:10:14;98155.69;;;14.45;50.50
73085;BME280;62974;49.460;10.892;2023-04-30T11:12:47;98161.13;;;14.39;51.29
73085;BME280;62974;49.460;10.892;2023-04-30T11:15:16;98152.97;;;14.52;50.14
73085;BME280;62974;49.460;10.892;2023-04-30T11:17:46;98147.56;;;14.45;49.12
73085;BME280;62974;49.460;10.892;2023-04-30T11:20:19;98144.91;;;14.77;49.82
73085;BME280;62974;49.460;10.892;2023-04-30T11:22:47;98142.81;;;14.79;51.36
73085;BME280;62974;49.460;10.892;2023-04-30T11:25:18;98138.34;;;14.91;51.75
73085;BME280;62974;49.460;10.892;2023-04-30T11:27:45;98131.50;;;14.88;49.72
73085;BME280;62974;49.460;10.892;2023-04-30T11:30:14;98124.13;;;15.70;48.88
73085;BME280;62974;49.460;10.892;2023-04-30T11:32:43;98126.06;;;15.63;50.45
73085;BME280;62974;49.460;10.892;2023-04-30T11:35:17;98122.78;;;15.11;50.30
73085;BME280;62974;49.460;10.892;2023-04-30T11:37:47;98119.63;;;14.89;49.74
73085;BME280;62974;49.460;10.892;2023-04-30T11:40:15;98118.28;;;14.74;50.09
73085;BME280;62974;49.460;10.892;2023-04-30T11:42:43;98104.50;;;15.07;48.28
73085;BME280;62974;49.460;10.892;2023-04-30T11:45:12;98104.41;;;14.95;48.88
73085;BME280;62974;49.460;10.892;2023-04-30T11:47:43;98100.28;;;15.35;46.33
73085;BME280;62974;49.460;10.892;2023-04-30T11:50:15;98093.88;;;15.12;45.15
73085;BME280;62974;49.460;10.892;2023-04-30T11:52:49;98115.88;;;14.90;48.48
73085;BME280;62974;49.460;10.892;2023-04-30T11:55:19;98119.09;;;14.81;48.76
73085;BME280;62974;49.460;10.892;2023-04-30T11:57:49;98098.34;;;14.99;47.76
73085;BME280;62974;49.460;10.892;2023-04-30T12:00:18;98098.72;;;15.03;46.02
73085;BME280;62974;49.460;10.892;2023-04-30T12:02:47;98107.66;;;15.28;47.11
73085;BME280;62974;49.460;10.892;2023-04-30T12:05:16;98097.13;;;14.95;45.39
73085;BME280;62974;49.460;10.892;2023-04-30T12:07:46;98103.47;;;14.83;48.06
73085;BME280;62974;49.460;10.892;2023-04-30T12:10:15;98090.97;;;15.56;45.95
73085;BME280;62974;49.460;10.892;2023-04-30T12:12:43;98088.38;;;15.18;46.32
73085;BME280;62974;49.460;10.892;2023-04-30T12:15:12;98097.13;;;15.20;46.41
73085;BME280;62974;49.460;10.892;2023-04-30T12:17:41;98103.03;;;14.86;48.75
73085;BME280;62974;49.460;10.892;2023-04-30T12:20:10;98093.41;;;15.58;47.82
73085;BME280;62974;49.460;10.892;2023-04-30T12:22:38;98088.63;;;15.17;45.12
73085;BME280;62974;49.460;10.892;2023-04-30T12:25:08;98089.63;;;15.40;46.29
73085;BME280;62974;49.460;10.892;2023-04-30T12:27:38;98090.72;;;15.15;44.59
73085;BME280;62974;49.460;10.892;2023-04-30T12:30:07;98090.78;;;15.08;44.37
73085;BME280;62974;49.460;10.892;2023-04-30T12:32:40;98085.56;;;15.31;44.07
73085;BME280;62974;49.460;10.892;2023-04-30T12:35:12;98086.81;;;15.29;44.94
73085;BME280;62974;49.460;10.892;2023-04-30T12:37:41;98087.44;;;15.06;44.63
73085;BME280;62974;49.460;10.892;2023-04-30T12:40:10;98078.34;;;15.98;44.88
73085;BME280;62974;49.460;10.892;2023-04-30T12:42:40;98072.25;;;16.03;45.35
73085;BME280;62974;49.460;10.892;2023-04-30T12:45:09;98063.31;;;16.32;41.84
73085;BME280;62974;49.460;10.892;2023-04-30T12:47:38;98085.75;;;15.91;44.17
73085;BME280;62974;49.460;10.892;2023-04-30T12:50:08;98084.75;;;15.85;44.17
73085;BME280;62974;49.460;10.892;2023-04-30T12:52:38;98068.78;;;16.43;41.78
73085;BME280;62974;49.460;10.892;2023-04-30T12:55:16;98070.69;;;16.25;42.90
73085;BME280;62974;49.460;10.892;2023-04-30T12:58:07;98074.00;;;15.97;44.17
73085;BME280;62974;49.460;10.892;2023-04-30T13:00:48;98073.19;;;15.78;44.95
73085;BME280;62974;49.460;10.892;2023-04-30T13:03:18;98065.47;;;16.41;45.71
73085;BME280;62974;49.460;10.892;2023-04-30T13:05:48;98063.47;;;16.49;44.76